sensor_id;sensor_type;location;lat;lon;timestamp;temperature;humidity
3208;DHT22;1616;52.394;9.756;2024-01-25T00:01:12;9.40;99.90
3208;DHT22;1616;52.394;9.756;2024-01-25T00:03:40;9.40;99.90
3208;DHT22;1616;52.394;9.756;2024-01-25T00:06:07;9.40;99.90
3208;DHT22;1616;52.394;9.756;2024-01-25T00:08:33;9.40;99.90
3208;DHT22;1616;52.394;9.756;2024-01-25T00:11:01;9.40;99.90
3208;DHT22;1616;52.394;9.756;2024-01-25T00:13:27;9.40;99.90
3208;DHT22;1616;52.394;9.756;2024-01-25T00:15:53;9.40;99.90
3208;DHT22;1616;52.394;9.756;2024-01-25T00:18:18;9.30;99.90
3208;DHT22;1616;52.394;9.756;2024-01-25T00:20:44;9.30;99.90
3208;DHT22;1616;52.394;9.756;2024-01-25T00:23:09;9.30;99.90
3208;DHT22;1616;52.394;9.756;2024-01-25T00:25:35;9.30;99.90
3208;DHT22;1616;52.394;9.756;2024-01-25T00:28:00;9.30;99.90
3208;DHT22;1616;52.394;9.756;2024-01-25T00:30:26;9.30;99.90
3208;DHT22;1616;52.394;9.756;2024-01-25T00:32:52;9.30;99.90
3208;DHT22;1616;52.394;9.756;2024-01-25T00:35:18;9.30;99.90
3208;DHT22;1616;52.394;9.756;2024-01-25T00:37:44;9.30;99.90
3208;DHT22;1616;52.394;9.756;2024-01-25T00:40:10;9.30;99.90
3208;DHT22;1616;52.394;9.756;2024-01-25T00:42:43;9.40;99.90
3208;DHT22;1616;52.394;9.756;2024-01-25T00:45:09;9.30;99.90
3208;DHT22;1616;52.394;9.756;2024-01-25T00:47:35;9.30;99.90
3208;DHT22;1616;52.394;9.756;2024-01-25T00:50:01;9.40;99.90
3208;DHT22;1616;52.394;9.756;2024-01-25T00:52:27;9.40;99.90
3208;DHT22;1616;52.394;9.756;2024-01-25T00:54:54;9.40;99.90
3208;DHT22;1616;52.394;9.756;2024-01-25T00:57:20;9.30;99.90
3208;DHT22;1616;52.394;9.756;2024-01-25T00:59:46;9.40;99.90
3208;DHT22;1616;52.394;9.756;2024-01-25T01:02:12;9.40;99.90
3208;DHT22;1616;52.394;9.756;2024-01-25T01:04:39;9.30;99.90
3208;DHT22;1616;52.394;9.756;2024-01-25T01:07:05;9.30;99.90
3208;DHT22;1616;52.394;9.756;2024-01-25T01:09:31;9.40;99.90
3208;DHT22;1616;52.394;9.756;2024-01-25T01:11:56;9.30;99.90
3208;DHT22;1616;52.394;9.756;2024-01-25T01:14:22;9.30;99.90
3208;DHT22;1616;52.394;9.756;2024-01-25T01:16:48;9.30;99.90
3208;DHT22;1616;52.394;9.756;2024-01-25T01:19:14;9.20;99.90
3208;DHT22;1616;52.394;9.756;2024-01-25T01:21:39;9.20;99.90
3208;DHT22;1616;52.394;9.756;2024-01-25T01:24:12;9.20;99.90
3208;DHT22;1616;52.394;9.756;2024-01-25T01:26:39;9.10;99.90
3208;DHT22;1616;52.394;9.756;2024-01-25T01:29:07;9.00;99.90
3208;DHT22;1616;52.394;9.756;2024-01-25T01:31:33;9.00;99.90
3208;DHT22;1616;52.394;9.756;2024-01-25T01:33:59;8.90;99.90
3208;DHT22;1616;52.394;9.756;2024-01-25T01:36:26;8.90;99.90
3208;DHT22;1616;52.394;9.756;2024-01-25T01:38:52;8.80;99.90
3208;DHT22;1616;52.394;9.756;2024-01-25T01:41:17;8.80;99.90
3208;DHT22;1616;52.394;9.756;2024-01-25T01:43:43;8.80;99.90
3208;DHT22;1616;52.394;9.756;2024-01-25T01:46:19;8.70;99.90
3208;DHT22;1616;52.394;9.756;2024-01-25T01:48:46;8.70;99.90
3208;DHT22;1616;52.394;9.756;2024-01-25T01:51:12;8.70;99.90
3208;DHT22;1616;52.394;9.756;2024-01-25T01:53:38;8.70;99.90
3208;DHT22;1616;52.394;9.756;2024-01-25T01:56:04;8.60;99.90
3208;DHT22;1616;52.394;9.756;2024-01-25T01:58:31;8.60;99.90
3208;DHT22;1616;52.394;9.756;2024-01-25T02:00:59;8.50;99.90
3208;DHT22;1616;52.394;9.756;2024-01-25T02:03:25;8.60;99.90
3208;DHT22;1616;52.394;9.756;2024-01-25T02:05:50;8.50;99.90
3208;DHT22;1616;52.394;9.756;2024-01-25T02:08:16;8.50;99.90
3208;DHT22;1616;52.394;9.756;2024-01-25T02:10:42;8.50;99.90
3208;DHT22;1616;52.394;9.756;2024-01-25T02:13:08;8.40;99.90
3208;DHT22;1616;52.394;9.756;2024-01-25T02:15:34;8.40;99.90
3208;DHT22;1616;52.394;9.756;2024-01-25T02:18:00;8.40;99.90
3208;DHT22;1616;52.394;9.756;2024-01-25T02:20:26;8.40;99.90
3208;DHT22;1616;52.394;9.756;2024-01-25T02:22:51;8.40;99.90
3208;DHT22;1616;52.394;9.756;2024-01-25T02:25:17;8.30;99.90
3208;DHT22;1616;52.394;9.756;2024-01-25T02:27:42;8.30;99.90
3208;DHT22;1616;52.394;9.756;2024-01-25T02:30:08;8.30;99.90
3208;DHT22;1616;52.394;9.756;2024-01-25T02:32:34;8.40;99.90
3208;DHT22;1616;52.394;9.756;2024-01-25T02:35:00;8.30;99.90
3208;DHT22;1616;52.394;9.756;2024-01-25T02:37:26;8.40;99.90
3208;DHT22;1616;52.394;9.756;2024-01-25T02:39:52;8.40;99.90
3208;DHT22;1616;52.394;9.756;2024-01-25T02:42:18;8.40;99.90
3208;DHT22;1616;52.394;9.756;2024-01-25T02:44:44;8.40;99.90
3208;DHT22;1616;52.394;9.756;2024-01-25T02:47:09;8.30;99.90
3208;DHT22;1616;52.394;9.756;2024-01-25T02:49:36;8.40;99.90
3208;DHT22;1616;52.394;9.756;2024-01-25T02:52:02;8.40;99.90
3208;DHT22;1616;52.394;9.756;2024-01-25T02:54:28;8.40;99.90
3208;DHT22;1616;52.394;9.756;2024-01-25T02:56:54;8.40;99.90
3208;DHT22;1616;52.394;9.756;2024-01-25T02:59:20;8.40;99.90
3208;DHT22;1616;52.394;9.756;2024-01-25T03:01:46;8.50;99.90
3208;DHT22;1616;52.394;9.756;2024-01-25T03:04:11;8.50;99.90
3208;DHT22;1616;52.394;9.756;2024-01-25T03:06:37;8.50;99.90
3208;DHT22;1616;52.394;9.756;2024-01-25T03:09:04;8.60;99.90
3208;DHT22;1616;52.394;9.756;2024-01-25T03:11:30;8.60;99.90
3208;DHT22;1616;52.394;9.756;2024-01-25T03:13:56;8.60;99.90
3208;DHT22;1616;52.394;9.756;2024-01-25T03:16:22;8.60;99.90
3208;DHT22;1616;52.394;9.756;2024-01-25T03:18:48;8.60;99.90
3208;DHT22;1616;52.394;9.756;2024-01-25T03:21:14;8.60;99.90
3208;DHT22;1616;52.394;9.756;2024-01-25T03:23:40;8.60;99.90
3208;DHT22;1616;52.394;9.756;2024-01-25T03:26:05;8.60;99.90
3208;DHT22;1616;52.394;9.756;2024-01-25T03:28:32;8.60;99.90
3208;DHT22;1616;52.394;9.756;2024-01-25T03:30:58;8.60;99.90
3208;DHT22;1616;52.394;9.756;2024-01-25T03:33:23;8.60;99.90
3208;DHT22;1616;52.394;9.756;2024-01-25T03:35:51;8.60;99.90
3208;DHT22;1616;52.394;9.756;2024-01-25T03:38:17;8.60;99.90
3208;DHT22;1616;52.394;9.756;2024-01-25T03:40:43;8.60;99.90
3208;DHT22;1616;52.394;9.756;2024-01-25T03:43:08;8.60;99.90
3208;DHT22;1616;52.394;9.756;2024-01-25T03:45:35;8.60;99.90
3208;DHT22;1616;52.394;9.756;2024-01-25T03:48:01;8.60;99.90
3208;DHT22;1616;52.394;9.756;2024-01-25T03:50:27;8.60;99.90
3208;DHT22;1616;52.394;9.756;2024-01-25T03:52:53;8.60;99.90
3208;DHT22;1616;52.394;9.756;2024-01-25T03:55:18;8.60;99.90
3208;DHT22;1616;52.394;9.756;2024-01-25T03:57:44;8.60;99.90
3208;DHT22;1616;52.394;9.756;2024-01-25T04:00:10;8.60;99.90
3208;DHT22;1616;52.394;9.756;2024-01-25T04:02:36;8.60;99.90
3208;DHT22;1616;52.394;9.756;2024-01-25T04:05:02;8.60;99.90
3208;DHT22;1616;52.394;9.756;2024-01-25T04:07:28;8.50;99.90
3208;DHT22;1616;52.394;9.756;2024-01-25T04:09:54;8.50;99.90
3208;DHT22;1616;52.394;9.756;2024-01-25T04:12:19;8.50;99.90
3208;DHT22;1616;52.394;9.756;2024-01-25T04:14:45;8.50;99.90
3208;DHT22;1616;52.394;9.756;2024-01-25T04:17:10;8.60;99.90
3208;DHT22;1616;52.394;9.756;2024-01-25T04:19:36;8.50;99.90
3208;DHT22;1616;52.394;9.756;2024-01-25T04:22:02;8.50;99.90
3208;DHT22;1616;52.394;9.756;2024-01-25T04:24:28;8.50;99.90
3208;DHT22;1616;52.394;9.756;2024-01-25T04:26:53;8.40;99.90
3208;DHT22;1616;52.394;9.756;2024-01-25T04:29:19;8.40;99.90
3208;DHT22;1616;52.394;9.756;2024-01-25T04:31:45;8.40;99.90
3208;DHT22;1616;52.394;9.756;2024-01-25T04:34:15;8.40;99.90
3208;DHT22;1616;52.394;9.756;2024-01-25T04:36:42;8.30;99.90
3208;DHT22;1616;52.394;9.756;2024-01-25T04:39:08;8.30;99.90
3208;DHT22;1616;52.394;9.756;2024-01-25T04:41:34;8.20;99.90
3208;DHT22;1616;52.394;9.756;2024-01-25T04:43:59;8.20;99.90
3208;DHT22;1616;52.394;9.756;2024-01-25T04:46:25;8.10;99.90
3208;DHT22;1616;52.394;9.756;2024-01-25T04:48:52;8.10;99.90
3208;DHT22;1616;52.394;9.756;2024-01-25T04:51:19;8.00;99.90
3208;DHT22;1616;52.394;9.756;2024-01-25T04:53:48;8.00;99.90
3208;DHT22;1616;52.394;9.756;2024-01-25T04:56:13;8.00;99.90
3208;DHT22;1616;52.394;9.756;2024-01-25T04:58:39;7.90;99.90
3208;DHT22;1616;52.394;9.756;2024-01-25T05:01:05;7.90;99.90
3208;DHT22;1616;52.394;9.756;2024-01-25T05:03:32;7.80;99.90
3208;DHT22;1616;52.394;9.756;2024-01-25T05:05:58;7.80;99.90
3208;DHT22;1616;52.394;9.756;2024-01-25T05:08:24;7.70;99.90
3208;DHT22;1616;52.394;9.756;2024-01-25T05:10:49;7.70;99.90
3208;DHT22;1616;52.394;9.756;2024-01-25T05:13:15;7.70;99.90
3208;DHT22;1616;52.394;9.756;2024-01-25T05:15:41;7.60;99.90
3208;DHT22;1616;52.394;9.756;2024-01-25T05:18:07;7.60;99.90
3208;DHT22;1616;52.394;9.756;2024-01-25T05:20:32;7.50;99.90
3208;DHT22;1616;52.394;9.756;2024-01-25T05:23:03;7.50;99.90
3208;DHT22;1616;52.394;9.756;2024-01-25T05:25:30;7.50;99.90
3208;DHT22;1616;52.394;9.756;2024-01-25T05:27:56;7.50;99.90
3208;DHT22;1616;52.394;9.756;2024-01-25T05:30:26;7.50;99.90
3208;DHT22;1616;52.394;9.756;2024-01-25T05:32:52;7.50;99.90
3208;DHT22;1616;52.394;9.756;2024-01-25T05:35:20;7.50;99.90
3208;DHT22;1616;52.394;9.756;2024-01-25T05:37:45;7.60;99.90
3208;DHT22;1616;52.394;9.756;2024-01-25T05:40:12;7.50;99.90
3208;DHT22;1616;52.394;9.756;2024-01-25T05:42:38;7.50;99.90
3208;DHT22;1616;52.394;9.756;2024-01-25T05:45:04;7.60;99.90
3208;DHT22;1616;52.394;9.756;2024-01-25T05:47:30;7.60;99.90
3208;DHT22;1616;52.394;9.756;2024-01-25T05:49:57;7.50;99.90
3208;DHT22;1616;52.394;9.756;2024-01-25T05:52:23;7.50;99.90
3208;DHT22;1616;52.394;9.756;2024-01-25T05:54:50;7.60;99.90
3208;DHT22;1616;52.394;9.756;2024-01-25T05:57:16;7.60;99.90
3208;DHT22;1616;52.394;9.756;2024-01-25T05:59:45;7.60;99.90
3208;DHT22;1616;52.394;9.756;2024-01-25T06:02:11;7.60;99.90
3208;DHT22;1616;52.394;9.756;2024-01-25T06:04:37;7.70;99.90
3208;DHT22;1616;52.394;9.756;2024-01-25T06:07:04;7.70;99.90
3208;DHT22;1616;52.394;9.756;2024-01-25T06:09:29;7.60;99.90
3208;DHT22;1616;52.394;9.756;2024-01-25T06:11:55;7.60;99.90
3208;DHT22;1616;52.394;9.756;2024-01-25T06:14:20;7.60;99.90
3208;DHT22;1616;52.394;9.756;2024-01-25T06:16:46;7.60;99.90
3208;DHT22;1616;52.394;9.756;2024-01-25T06:19:12;7.60;99.90
3208;DHT22;1616;52.394;9.756;2024-01-25T06:21:37;7.60;99.90
3208;DHT22;1616;52.394;9.756;2024-01-25T06:24:04;7.60;99.90
3208;DHT22;1616;52.394;9.756;2024-01-25T06:26:30;7.60;99.90
3208;DHT22;1616;52.394;9.756;2024-01-25T06:28:56;7.50;99.90
3208;DHT22;1616;52.394;9.756;2024-01-25T06:31:25;7.60;99.90
3208;DHT22;1616;52.394;9.756;2024-01-25T06:33:51;7.60;99.90
3208;DHT22;1616;52.394;9.756;2024-01-25T06:36:22;7.60;99.90
3208;DHT22;1616;52.394;9.756;2024-01-25T06:38:48;7.60;99.90
3208;DHT22;1616;52.394;9.756;2024-01-25T06:41:14;7.70;99.90
3208;DHT22;1616;52.394;9.756;2024-01-25T06:43:41;7.60;99.90
3208;DHT22;1616;52.394;9.756;2024-01-25T06:46:07;7.60;99.90
3208;DHT22;1616;52.394;9.756;2024-01-25T06:48:33;7.60;99.90
3208;DHT22;1616;52.394;9.756;2024-01-25T06:50:59;7.60;99.90
3208;DHT22;1616;52.394;9.756;2024-01-25T06:53:26;7.60;99.90
3208;DHT22;1616;52.394;9.756;2024-01-25T06:55:51;7.60;99.90
3208;DHT22;1616;52.394;9.756;2024-01-25T06:58:17;7.60;99.90
3208;DHT22;1616;52.394;9.756;2024-01-25T07:00:44;7.50;99.90
3208;DHT22;1616;52.394;9.756;2024-01-25T07:03:10;7.50;99.90
3208;DHT22;1616;52.394;9.756;2024-01-25T07:05:36;7.50;99.90
3208;DHT22;1616;52.394;9.756;2024-01-25T07:08:02;7.50;99.90
3208;DHT22;1616;52.394;9.756;2024-01-25T07:10:28;7.50;99.90
3208;DHT22;1616;52.394;9.756;2024-01-25T07:12:54;7.40;99.90
3208;DHT22;1616;52.394;9.756;2024-01-25T07:15:20;7.40;99.90
3208;DHT22;1616;52.394;9.756;2024-01-25T07:17:46;7.40;99.90
3208;DHT22;1616;52.394;9.756;2024-01-25T07:20:12;7.30;99.90
3208;DHT22;1616;52.394;9.756;2024-01-25T07:22:39;7.30;99.90
3208;DHT22;1616;52.394;9.756;2024-01-25T07:25:05;7.20;99.90
3208;DHT22;1616;52.394;9.756;2024-01-25T07:27:31;7.20;99.90
3208;DHT22;1616;52.394;9.756;2024-01-25T07:29:56;7.20;99.90
3208;DHT22;1616;52.394;9.756;2024-01-25T07:32:22;7.30;99.90
3208;DHT22;1616;52.394;9.756;2024-01-25T07:34:50;7.30;99.90
3208;DHT22;1616;52.394;9.756;2024-01-25T07:37:16;7.30;99.90
3208;DHT22;1616;52.394;9.756;2024-01-25T07:39:45;7.30;99.90
3208;DHT22;1616;52.394;9.756;2024-01-25T07:42:11;7.40;99.90
3208;DHT22;1616;52.394;9.756;2024-01-25T07:44:38;7.40;99.90
3208;DHT22;1616;52.394;9.756;2024-01-25T07:47:03;7.50;99.90
3208;DHT22;1616;52.394;9.756;2024-01-25T07:49:29;7.50;99.90
3208;DHT22;1616;52.394;9.756;2024-01-25T07:51:55;7.60;99.90
3208;DHT22;1616;52.394;9.756;2024-01-25T07:54:24;7.60;99.90
3208;DHT22;1616;52.394;9.756;2024-01-25T07:56:50;7.70;99.90
3208;DHT22;1616;52.394;9.756;2024-01-25T07:59:15;7.70;99.90
3208;DHT22;1616;52.394;9.756;2024-01-25T08:01:41;7.70;99.90
3208;DHT22;1616;52.394;9.756;2024-01-25T08:04:06;7.80;99.90
3208;DHT22;1616;52.394;9.756;2024-01-25T08:06:32;7.80;99.90
3208;DHT22;1616;52.394;9.756;2024-01-25T08:08:58;7.80;99.90
3208;DHT22;1616;52.394;9.756;2024-01-25T08:11:24;7.90;99.90
3208;DHT22;1616;52.394;9.756;2024-01-25T08:13:50;7.90;99.90
3208;DHT22;1616;52.394;9.756;2024-01-25T08:16:16;7.90;99.90
3208;DHT22;1616;52.394;9.756;2024-01-25T08:18:46;8.00;99.90
3208;DHT22;1616;52.394;9.756;2024-01-25T08:21:13;8.00;99.90
3208;DHT22;1616;52.394;9.756;2024-01-25T08:23:39;8.00;99.90
3208;DHT22;1616;52.394;9.756;2024-01-25T08:26:07;8.10;99.90
3208;DHT22;1616;52.394;9.756;2024-01-25T08:28:41;8.20;99.90
3208;DHT22;1616;52.394;9.756;2024-01-25T08:31:08;8.20;99.90
3208;DHT22;1616;52.394;9.756;2024-01-25T08:33:34;8.30;99.90
3208;DHT22;1616;52.394;9.756;2024-01-25T08:36:00;8.30;99.90
3208;DHT22;1616;52.394;9.756;2024-01-25T08:38:26;8.40;99.90
3208;DHT22;1616;52.394;9.756;2024-01-25T08:40:52;8.50;99.90
3208;DHT22;1616;52.394;9.756;2024-01-25T08:43:17;8.60;99.90
3208;DHT22;1616;52.394;9.756;2024-01-25T08:45:43;8.70;99.90
3208;DHT22;1616;52.394;9.756;2024-01-25T08:48:09;8.80;99.90
3208;DHT22;1616;52.394;9.756;2024-01-25T08:50:35;8.80;99.90
3208;DHT22;1616;52.394;9.756;2024-01-25T08:53:01;8.90;99.90
3208;DHT22;1616;52.394;9.756;2024-01-25T08:55:27;8.90;99.90
3208;DHT22;1616;52.394;9.756;2024-01-25T08:57:53;9.00;99.90
3208;DHT22;1616;52.394;9.756;2024-01-25T09:00:19;9.10;99.90
3208;DHT22;1616;52.394;9.756;2024-01-25T09:02:45;9.10;99.90
3208;DHT22;1616;52.394;9.756;2024-01-25T09:05:11;9.10;99.90
3208;DHT22;1616;52.394;9.756;2024-01-25T09:07:37;9.10;99.90
3208;DHT22;1616;52.394;9.756;2024-01-25T09:10:04;9.10;99.90
3208;DHT22;1616;52.394;9.756;2024-01-25T09:12:30;9.00;99.90
3208;DHT22;1616;52.394;9.756;2024-01-25T09:14:56;9.00;99.90
3208;DHT22;1616;52.394;9.756;2024-01-25T09:17:21;9.10;99.90
3208;DHT22;1616;52.394;9.756;2024-01-25T09:19:48;9.00;99.90
3208;DHT22;1616;52.394;9.756;2024-01-25T09:22:15;9.00;99.90
3208;DHT22;1616;52.394;9.756;2024-01-25T09:24:43;9.00;99.90
3208;DHT22;1616;52.394;9.756;2024-01-25T09:27:09;8.90;99.90
3208;DHT22;1616;52.394;9.756;2024-01-25T09:29:35;8.80;99.90
3208;DHT22;1616;52.394;9.756;2024-01-25T09:32:06;8.80;99.90
3208;DHT22;1616;52.394;9.756;2024-01-25T09:34:31;8.80;99.90
3208;DHT22;1616;52.394;9.756;2024-01-25T09:36:57;8.80;99.90
3208;DHT22;1616;52.394;9.756;2024-01-25T09:39:23;8.80;99.90
3208;DHT22;1616;52.394;9.756;2024-01-25T09:41:49;8.80;99.90
3208;DHT22;1616;52.394;9.756;2024-01-25T09:44:14;8.90;99.90
3208;DHT22;1616;52.394;9.756;2024-01-25T09:46:41;8.90;99.90
3208;DHT22;1616;52.394;9.756;2024-01-25T09:49:07;9.00;99.90
3208;DHT22;1616;52.394;9.756;2024-01-25T09:51:42;8.90;99.90
3208;DHT22;1616;52.394;9.756;2024-01-25T09:54:08;9.00;99.90
3208;DHT22;1616;52.394;9.756;2024-01-25T09:56:34;9.00;99.90
3208;DHT22;1616;52.394;9.756;2024-01-25T09:59:01;9.10;99.90
3208;DHT22;1616;52.394;9.756;2024-01-25T10:01:28;9.10;99.90
3208;DHT22;1616;52.394;9.756;2024-01-25T10:03:54;9.20;99.90
3208;DHT22;1616;52.394;9.756;2024-01-25T10:06:22;9.40;99.90
3208;DHT22;1616;52.394;9.756;2024-01-25T10:08:48;9.50;99.90
3208;DHT22;1616;52.394;9.756;2024-01-25T10:11:15;9.80;99.90
3208;DHT22;1616;52.394;9.756;2024-01-25T10:13:48;10.00;99.90
3208;DHT22;1616;52.394;9.756;2024-01-25T10:16:18;10.00;99.90
3208;DHT22;1616;52.394;9.756;2024-01-25T10:18:46;10.10;99.90
3208;DHT22;1616;52.394;9.756;2024-01-25T10:21:13;10.10;99.90
3208;DHT22;1616;52.394;9.756;2024-01-25T10:23:40;10.20;99.90
3208;DHT22;1616;52.394;9.756;2024-01-25T10:26:08;10.30;99.90
3208;DHT22;1616;52.394;9.756;2024-01-25T10:28:33;10.40;99.90
3208;DHT22;1616;52.394;9.756;2024-01-25T10:31:03;10.50;99.90
3208;DHT22;1616;52.394;9.756;2024-01-25T10:33:33;10.60;99.90
3208;DHT22;1616;52.394;9.756;2024-01-25T10:36:03;10.70;99.90
3208;DHT22;1616;52.394;9.756;2024-01-25T10:38:35;10.80;99.90
3208;DHT22;1616;52.394;9.756;2024-01-25T10:41:03;11.00;99.90
3208;DHT22;1616;52.394;9.756;2024-01-25T10:43:29;11.00;99.90
3208;DHT22;1616;52.394;9.756;2024-01-25T10:45:59;11.10;99.90
3208;DHT22;1616;52.394;9.756;2024-01-25T10:48:25;11.20;99.90
3208;DHT22;1616;52.394;9.756;2024-01-25T10:50:55;11.30;99.90
3208;DHT22;1616;52.394;9.756;2024-01-25T10:53:23;11.40;99.90
3208;DHT22;1616;52.394;9.756;2024-01-25T10:55:49;11.40;99.90
3208;DHT22;1616;52.394;9.756;2024-01-25T10:58:15;11.20;99.90
3208;DHT22;1616;52.394;9.756;2024-01-25T11:00:41;11.10;99.90
3208;DHT22;1616;52.394;9.756;2024-01-25T11:03:07;11.00;99.90
3208;DHT22;1616;52.394;9.756;2024-01-25T11:05:33;10.80;99.90
3208;DHT22;1616;52.394;9.756;2024-01-25T11:08:00;10.70;99.90
3208;DHT22;1616;52.394;9.756;2024-01-25T11:10:26;10.70;99.90
3208;DHT22;1616;52.394;9.756;2024-01-25T11:12:57;10.60;99.90
3208;DHT22;1616;52.394;9.756;2024-01-25T11:15:30;10.50;99.90
3208;DHT22;1616;52.394;9.756;2024-01-25T11:17:56;10.50;99.90
3208;DHT22;1616;52.394;9.756;2024-01-25T11:20:27;10.50;99.90
3208;DHT22;1616;52.394;9.756;2024-01-25T11:23:03;10.70;99.90
3208;DHT22;1616;52.394;9.756;2024-01-25T11:25:39;10.70;99.90
3208;DHT22;1616;52.394;9.756;2024-01-25T11:28:05;10.70;99.90
3208;DHT22;1616;52.394;9.756;2024-01-25T11:30:33;10.60;99.90
3208;DHT22;1616;52.394;9.756;2024-01-25T11:32:59;10.60;99.90
3208;DHT22;1616;52.394;9.756;2024-01-25T11:35:25;10.40;99.90
3208;DHT22;1616;52.394;9.756;2024-01-25T11:37:51;10.40;99.90
3208;DHT22;1616;52.394;9.756;2024-01-25T11:40:18;10.40;99.90
3208;DHT22;1616;52.394;9.756;2024-01-25T11:42:46;10.30;99.90
3208;DHT22;1616;52.394;9.756;2024-01-25T11:45:13;10.20;99.90
3208;DHT22;1616;52.394;9.756;2024-01-25T11:47:40;10.10;99.90
3208;DHT22;1616;52.394;9.756;2024-01-25T11:50:10;10.10;99.90
3208;DHT22;1616;52.394;9.756;2024-01-25T11:52:36;10.10;99.90
3208;DHT22;1616;52.394;9.756;2024-01-25T11:55:04;10.10;99.90
3208;DHT22;1616;52.394;9.756;2024-01-25T11:57:31;10.10;99.90
3208;DHT22;1616;52.394;9.756;2024-01-25T11:59:58;10.10;99.90
3208;DHT22;1616;52.394;9.756;2024-01-25T12:02:24;10.10;99.90
3208;DHT22;1616;52.394;9.756;2024-01-25T12:04:50;10.00;99.90
3208;DHT22;1616;52.394;9.756;2024-01-25T12:07:19;10.00;99.90
3208;DHT22;1616;52.394;9.756;2024-01-25T12:09:45;9.90;99.90
3208;DHT22;1616;52.394;9.756;2024-01-25T12:12:11;9.80;99.90
3208;DHT22;1616;52.394;9.756;2024-01-25T12:14:37;9.70;99.90
3208;DHT22;1616;52.394;9.756;2024-01-25T12:17:03;9.70;99.90
3208;DHT22;1616;52.394;9.756;2024-01-25T12:19:30;9.60;99.90
3208;DHT22;1616;52.394;9.756;2024-01-25T12:21:56;9.70;99.90
3208;DHT22;1616;52.394;9.756;2024-01-25T12:24:22;9.70;99.90
3208;DHT22;1616;52.394;9.756;2024-01-25T12:26:47;9.80;99.90
3208;DHT22;1616;52.394;9.756;2024-01-25T12:29:13;9.80;99.90
3208;DHT22;1616;52.394;9.756;2024-01-25T12:31:39;9.90;99.90
3208;DHT22;1616;52.394;9.756;2024-01-25T12:34:13;10.10;99.90
3208;DHT22;1616;52.394;9.756;2024-01-25T12:36:40;10.30;99.90
3208;DHT22;1616;52.394;9.756;2024-01-25T12:39:06;10.50;99.90
3208;DHT22;1616;52.394;9.756;2024-01-25T12:41:32;10.60;99.90
3208;DHT22;1616;52.394;9.756;2024-01-25T12:43:57;10.80;99.90
3208;DHT22;1616;52.394;9.756;2024-01-25T12:46:23;11.00;99.90
3208;DHT22;1616;52.394;9.756;2024-01-25T12:48:49;11.10;99.90
3208;DHT22;1616;52.394;9.756;2024-01-25T12:51:20;11.20;99.90
3208;DHT22;1616;52.394;9.756;2024-01-25T12:53:48;11.40;99.90
3208;DHT22;1616;52.394;9.756;2024-01-25T12:56:14;11.50;99.90
3208;DHT22;1616;52.394;9.756;2024-01-25T12:58:40;11.60;99.90
3208;DHT22;1616;52.394;9.756;2024-01-25T13:01:06;11.90;99.90
3208;DHT22;1616;52.394;9.756;2024-01-25T13:03:31;12.10;99.90
3208;DHT22;1616;52.394;9.756;2024-01-25T13:05:58;12.20;99.90
3208;DHT22;1616;52.394;9.756;2024-01-25T13:08:23;12.10;99.90
3208;DHT22;1616;52.394;9.756;2024-01-25T13:10:49;12.00;99.90
3208;DHT22;1616;52.394;9.756;2024-01-25T13:13:14;11.80;99.90
3208;DHT22;1616;52.394;9.756;2024-01-25T13:15:40;11.60;99.90
3208;DHT22;1616;52.394;9.756;2024-01-25T13:18:05;11.50;99.90
3208;DHT22;1616;52.394;9.756;2024-01-25T13:20:31;11.20;99.90
3208;DHT22;1616;52.394;9.756;2024-01-25T13:22:57;11.00;99.90
3208;DHT22;1616;52.394;9.756;2024-01-25T13:25:22;10.80;99.90
3208;DHT22;1616;52.394;9.756;2024-01-25T13:27:48;10.60;99.90
3208;DHT22;1616;52.394;9.756;2024-01-25T13:30:14;10.50;99.90
3208;DHT22;1616;52.394;9.756;2024-01-25T13:32:40;10.40;99.90
3208;DHT22;1616;52.394;9.756;2024-01-25T13:35:06;10.30;99.90
3208;DHT22;1616;52.394;9.756;2024-01-25T13:37:32;10.20;99.90
3208;DHT22;1616;52.394;9.756;2024-01-25T13:39:58;10.10;99.90
3208;DHT22;1616;52.394;9.756;2024-01-25T13:42:23;10.00;99.90
3208;DHT22;1616;52.394;9.756;2024-01-25T13:44:49;9.90;99.90
3208;DHT22;1616;52.394;9.756;2024-01-25T13:47:14;9.90;99.90
3208;DHT22;1616;52.394;9.756;2024-01-25T13:49:40;9.90;99.90
3208;DHT22;1616;52.394;9.756;2024-01-25T13:52:05;9.90;99.90
3208;DHT22;1616;52.394;9.756;2024-01-25T13:54:31;10.00;99.90
3208;DHT22;1616;52.394;9.756;2024-01-25T13:56:57;10.00;99.90
3208;DHT22;1616;52.394;9.756;2024-01-25T13:59:23;10.10;99.90
3208;DHT22;1616;52.394;9.756;2024-01-25T14:01:51;10.10;99.90
3208;DHT22;1616;52.394;9.756;2024-01-25T14:04:16;10.20;99.90
3208;DHT22;1616;52.394;9.756;2024-01-25T14:06:42;10.30;99.90
3208;DHT22;1616;52.394;9.756;2024-01-25T14:09:08;10.30;99.90
3208;DHT22;1616;52.394;9.756;2024-01-25T14:11:36;10.30;99.90
3208;DHT22;1616;52.394;9.756;2024-01-25T14:14:01;10.40;99.90
3208;DHT22;1616;52.394;9.756;2024-01-25T14:16:27;10.30;99.90
3208;DHT22;1616;52.394;9.756;2024-01-25T14:18:53;10.30;99.90
3208;DHT22;1616;52.394;9.756;2024-01-25T14:21:18;10.20;99.90
3208;DHT22;1616;52.394;9.756;2024-01-25T14:23:46;10.20;99.90
3208;DHT22;1616;52.394;9.756;2024-01-25T14:26:12;10.10;99.90
3208;DHT22;1616;52.394;9.756;2024-01-25T14:28:38;9.90;99.90
3208;DHT22;1616;52.394;9.756;2024-01-25T14:31:03;9.80;99.90
3208;DHT22;1616;52.394;9.756;2024-01-25T14:33:29;9.70;99.90
3208;DHT22;1616;52.394;9.756;2024-01-25T14:35:55;9.60;99.90
3208;DHT22;1616;52.394;9.756;2024-01-25T14:38:20;9.60;99.90
3208;DHT22;1616;52.394;9.756;2024-01-25T14:40:46;9.50;99.90
3208;DHT22;1616;52.394;9.756;2024-01-25T14:43:11;9.50;99.90
3208;DHT22;1616;52.394;9.756;2024-01-25T14:45:38;9.40;99.90
3208;DHT22;1616;52.394;9.756;2024-01-25T14:48:04;9.40;99.90
3208;DHT22;1616;52.394;9.756;2024-01-25T14:50:31;9.40;99.90
3208;DHT22;1616;52.394;9.756;2024-01-25T14:52:58;9.30;99.90
3208;DHT22;1616;52.394;9.756;2024-01-25T14:55:25;9.30;99.90
3208;DHT22;1616;52.394;9.756;2024-01-25T14:57:50;9.30;99.90
3208;DHT22;1616;52.394;9.756;2024-01-25T15:00:17;9.30;99.90
3208;DHT22;1616;52.394;9.756;2024-01-25T15:02:48;9.30;99.90
3208;DHT22;1616;52.394;9.756;2024-01-25T15:05:13;9.30;99.90
3208;DHT22;1616;52.394;9.756;2024-01-25T15:07:40;9.30;99.90
3208;DHT22;1616;52.394;9.756;2024-01-25T15:10:06;9.30;99.90
3208;DHT22;1616;52.394;9.756;2024-01-25T15:12:32;9.20;99.90
3208;DHT22;1616;52.394;9.756;2024-01-25T15:14:58;9.20;99.90
3208;DHT22;1616;52.394;9.756;2024-01-25T15:17:24;9.20;99.90
3208;DHT22;1616;52.394;9.756;2024-01-25T15:19:49;9.10;99.90
3208;DHT22;1616;52.394;9.756;2024-01-25T15:22:15;9.10;99.90
3208;DHT22;1616;52.394;9.756;2024-01-25T15:24:41;9.10;99.90
3208;DHT22;1616;52.394;9.756;2024-01-25T15:27:07;9.10;99.90
3208;DHT22;1616;52.394;9.756;2024-01-25T15:29:32;9.00;99.90
3208;DHT22;1616;52.394;9.756;2024-01-25T15:31:58;9.00;99.90
3208;DHT22;1616;52.394;9.756;2024-01-25T15:34:24;9.00;99.90
3208;DHT22;1616;52.394;9.756;2024-01-25T15:36:50;8.90;99.90
3208;DHT22;1616;52.394;9.756;2024-01-25T15:39:15;8.90;99.90
3208;DHT22;1616;52.394;9.756;2024-01-25T15:41:43;8.80;99.90
3208;DHT22;1616;52.394;9.756;2024-01-25T15:44:09;8.70;99.90
3208;DHT22;1616;52.394;9.756;2024-01-25T15:46:34;8.60;99.90
3208;DHT22;1616;52.394;9.756;2024-01-25T15:49:00;8.60;99.90
3208;DHT22;1616;52.394;9.756;2024-01-25T15:51:26;8.50;99.90
3208;DHT22;1616;52.394;9.756;2024-01-25T15:53:53;8.50;99.90
3208;DHT22;1616;52.394;9.756;2024-01-25T15:56:19;8.40;99.90
3208;DHT22;1616;52.394;9.756;2024-01-25T15:58:44;8.30;99.90
3208;DHT22;1616;52.394;9.756;2024-01-25T16:01:10;8.30;99.90
3208;DHT22;1616;52.394;9.756;2024-01-25T16:03:35;8.30;99.90
3208;DHT22;1616;52.394;9.756;2024-01-25T16:06:01;8.20;99.90
3208;DHT22;1616;52.394;9.756;2024-01-25T16:08:29;8.20;99.90